createdAt,value
2017-10-03T00:00:50.670Z,997.46
2017-10-03T00:01:50.318Z,997.48
2017-10-03T00:02:50.309Z,997.49
2017-10-03T00:03:50.313Z,997.57
2017-10-03T00:04:50.288Z,997.53
2017-10-03T00:05:50.282Z,997.52
2017-10-03T00:06:50.708Z,997.47
2017-10-03T00:07:50.275Z,997.50
2017-10-03T00:08:50.271Z,997.53
2017-10-03T00:09:50.257Z,997.50
2017-10-03T00:10:50.248Z,997.51
2017-10-03T00:11:50.243Z,997.59
2017-10-03T00:12:50.265Z,997.58
2017-10-03T00:13:50.224Z,997.61
2017-10-03T00:14:50.224Z,997.60
2017-10-03T00:15:50.520Z,997.69
2017-10-03T00:16:50.203Z,997.67
2017-10-03T00:17:50.196Z,997.71
2017-10-03T00:18:50.192Z,997.80
2017-10-03T00:19:50.180Z,997.79
2017-10-03T00:20:50.184Z,997.82
2017-10-03T00:21:50.194Z,997.79
2017-10-03T00:22:50.164Z,997.77
2017-10-03T00:23:50.157Z,997.75
2017-10-03T00:24:50.146Z,997.72
2017-10-03T00:25:50.445Z,997.68
2017-10-03T00:26:50.134Z,997.70
2017-10-03T00:27:50.124Z,997.63
2017-10-03T00:28:50.117Z,997.61
2017-10-03T00:29:50.110Z,997.61
2017-10-03T00:30:50.105Z,997.63
2017-10-03T00:31:50.524Z,997.58
2017-10-03T00:32:50.086Z,997.57
2017-10-03T00:33:50.078Z,997.50
2017-10-03T00:34:50.073Z,997.57
2017-10-03T00:35:50.072Z,997.66
2017-10-03T00:36:50.061Z,997.70
2017-10-03T00:37:50.419Z,997.70
2017-10-03T00:38:50.042Z,997.73
2017-10-03T00:39:50.036Z,997.66
2017-10-03T00:40:50.031Z,997.67
2017-10-03T00:41:50.021Z,997.63
2017-10-03T00:42:50.016Z,997.62
2017-10-03T00:43:50.042Z,997.63
2017-10-03T00:44:49.997Z,997.70
2017-10-03T00:45:50.001Z,997.69
2017-10-03T00:46:49.983Z,997.69
2017-10-03T00:47:49.978Z,997.69
2017-10-03T00:48:50.406Z,997.71
2017-10-03T00:49:49.964Z,997.73
2017-10-03T00:50:49.961Z,997.75
2017-10-03T00:51:49.956Z,997.77
2017-10-03T00:52:49.940Z,997.69
2017-10-03T00:53:49.939Z,997.69
2017-10-03T00:54:49.953Z,997.68
2017-10-03T00:55:49.923Z,997.64
2017-10-03T00:56:49.911Z,997.57
2017-10-03T00:57:49.901Z,997.57
2017-10-03T00:58:49.894Z,997.51
2017-10-03T00:59:50.344Z,997.49
2017-10-03T01:00:49.881Z,997.52
2017-10-03T01:01:49.877Z,997.49
2017-10-03T01:02:49.864Z,997.50
2017-10-03T01:03:49.879Z,997.47
2017-10-03T01:04:49.854Z,997.46
2017-10-03T01:05:50.198Z,997.45
2017-10-03T01:06:49.840Z,997.49
2017-10-03T01:07:49.829Z,997.52
2017-10-03T01:08:49.826Z,997.53
2017-10-03T01:09:49.824Z,997.49
2017-10-03T01:10:49.808Z,997.50
2017-10-03T01:11:49.826Z,997.46
2017-10-03T01:12:49.796Z,997.42
2017-10-03T01:13:49.784Z,997.40
2017-10-03T01:14:50.150Z,997.43
2017-10-03T01:15:49.773Z,997.49
2017-10-03T01:16:49.763Z,997.51
2017-10-03T01:17:49.758Z,997.51
2017-10-03T01:18:49.748Z,997.55
2017-10-03T01:19:49.742Z,997.55
2017-10-03T01:20:50.038Z,997.54
2017-10-03T01:21:49.728Z,997.50
2017-10-03T01:22:49.724Z,997.49
2017-10-03T01:23:49.709Z,997.47
2017-10-03T01:24:49.709Z,997.42
2017-10-03T01:25:49.706Z,997.40
2017-10-03T01:26:50.054Z,997.42
2017-10-03T01:27:49.681Z,997.37
2017-10-03T01:28:49.680Z,997.38
2017-10-03T01:29:49.670Z,997.40
2017-10-03T01:30:49.662Z,997.40
2017-10-03T01:31:49.651Z,997.40
2017-10-03T01:32:49.994Z,997.42
2017-10-03T01:33:49.641Z,997.41
2017-10-03T01:34:49.635Z,997.47
2017-10-03T01:35:49.622Z,997.48
2017-10-03T01:36:49.618Z,997.53
2017-10-03T01:37:49.613Z,997.56
2017-10-03T01:38:49.987Z,997.59
2017-10-03T01:39:49.598Z,997.56
2017-10-03T01:40:49.589Z,997.51
2017-10-03T01:41:49.582Z,997.52
2017-10-03T01:42:49.574Z,997.48
2017-10-03T01:43:49.567Z,997.47
2017-10-03T01:44:49.938Z,997.45
2017-10-03T01:45:49.553Z,997.43
2017-10-03T01:46:49.546Z,997.45
2017-10-03T01:47:49.541Z,997.48
2017-10-03T01:48:49.537Z,997.50
2017-10-03T01:49:49.523Z,997.51
2017-10-03T01:50:49.907Z,997.52
2017-10-03T01:51:49.508Z,997.57
2017-10-03T01:52:49.508Z,997.52
2017-10-03T01:53:49.493Z,997.52
2017-10-03T01:54:49.490Z,997.52
2017-10-03T01:55:49.484Z,997.52
2017-10-03T01:56:49.907Z,997.56
2017-10-03T01:57:49.465Z,997.59
2017-10-03T01:58:49.456Z,997.57
2017-10-03T01:59:49.455Z,997.54
2017-10-03T02:00:49.444Z,997.50
2017-10-03T02:01:49.432Z,997.48
2017-10-03T02:02:49.862Z,997.53
2017-10-03T02:03:49.419Z,997.53
2017-10-03T02:04:49.416Z,997.53
2017-10-03T02:05:49.407Z,997.49
2017-10-03T02:06:49.398Z,997.50
2017-10-03T02:07:49.388Z,997.49
2017-10-03T02:08:49.752Z,997.47
2017-10-03T02:09:49.381Z,997.44
2017-10-03T02:10:49.365Z,997.46
2017-10-03T02:11:49.364Z,997.49
2017-10-03T02:12:49.356Z,997.47
2017-10-03T02:13:49.352Z,997.47
2017-10-03T02:14:49.746Z,997.50
2017-10-03T02:15:49.328Z,997.50
2017-10-03T02:16:49.327Z,997.52
2017-10-03T02:17:49.318Z,997.56
2017-10-03T02:18:49.310Z,997.55
2017-10-03T02:19:49.301Z,997.54
2017-10-03T02:20:49.658Z,997.53
2017-10-03T02:21:49.288Z,997.51
2017-10-03T02:22:49.278Z,997.56
2017-10-03T02:23:49.273Z,997.56
2017-10-03T02:24:49.269Z,997.57
2017-10-03T02:25:49.257Z,997.59
2017-10-03T02:26:49.650Z,997.54
2017-10-03T02:27:49.246Z,997.52
2017-10-03T02:28:49.233Z,997.47
2017-10-03T02:29:49.229Z,997.45
2017-10-03T02:30:49.221Z,997.50
2017-10-03T02:31:49.219Z,997.57
2017-10-03T02:32:49.651Z,997.61
2017-10-03T02:33:49.207Z,997.61
2017-10-03T02:34:49.201Z,997.55
2017-10-03T02:35:49.186Z,997.56
2017-10-03T02:36:49.179Z,997.56
2017-10-03T02:37:49.172Z,997.57
2017-10-03T02:38:49.585Z,997.58
2017-10-03T02:39:49.156Z,997.57
2017-10-03T02:40:49.147Z,997.58
2017-10-03T02:41:49.142Z,997.56
2017-10-03T02:42:49.132Z,997.62
2017-10-03T02:43:49.126Z,997.60
2017-10-03T02:44:49.564Z,997.60
2017-10-03T02:45:49.111Z,997.60
2017-10-03T02:46:49.105Z,997.60
2017-10-03T02:47:49.096Z,997.63
2017-10-03T02:48:49.090Z,997.62
2017-10-03T02:49:49.081Z,997.65
2017-10-03T02:50:49.409Z,997.64
2017-10-03T02:51:49.074Z,997.66
2017-10-03T02:52:49.057Z,997.65
2017-10-03T02:53:49.055Z,997.68
2017-10-03T02:54:49.045Z,997.66
2017-10-03T02:55:49.033Z,997.68
2017-10-03T02:56:49.064Z,997.65
2017-10-03T02:57:49.027Z,997.69
2017-10-03T02:58:49.019Z,997.65
2017-10-03T02:59:49.004Z,997.66
2017-10-03T03:00:49.003Z,997.65
2017-10-03T03:01:49.447Z,997.66
2017-10-03T03:02:48.985Z,997.69
2017-10-03T03:03:48.977Z,997.70
2017-10-03T03:04:48.975Z,997.66
2017-10-03T03:05:48.969Z,997.66
2017-10-03T03:06:48.956Z,997.70
2017-10-03T03:07:49.365Z,997.67
2017-10-03T03:08:48.940Z,997.69
2017-10-03T03:09:48.936Z,997.65
2017-10-03T03:10:48.925Z,997.65
2017-10-03T03:11:48.920Z,997.59
2017-10-03T03:12:48.914Z,997.63
2017-10-03T03:13:49.353Z,997.59
2017-10-03T03:14:48.895Z,997.59
2017-10-03T03:15:48.888Z,997.61
2017-10-03T03:16:48.883Z,997.61
2017-10-03T03:17:48.876Z,997.60
2017-10-03T03:18:48.870Z,997.62
2017-10-03T03:19:49.199Z,997.63
2017-10-03T03:20:48.855Z,997.64
2017-10-03T03:21:48.847Z,997.65
2017-10-03T03:22:48.837Z,997.65
2017-10-03T03:23:48.826Z,997.64
2017-10-03T03:24:48.818Z,997.62
2017-10-03T03:25:49.270Z,997.62
2017-10-03T03:26:48.807Z,997.63
2017-10-03T03:27:48.813Z,997.63
2017-10-03T03:28:48.792Z,997.65
2017-10-03T03:29:48.783Z,997.63
2017-10-03T03:30:48.779Z,997.67
2017-10-03T03:31:49.234Z,997.65
2017-10-03T03:32:48.769Z,997.71
2017-10-03T03:33:48.755Z,997.70
2017-10-03T03:34:48.750Z,997.70
2017-10-03T03:35:48.745Z,997.67
2017-10-03T03:36:48.737Z,997.70
2017-10-03T03:37:49.094Z,997.70
2017-10-03T03:38:48.721Z,997.69
2017-10-03T03:39:48.713Z,997.68
2017-10-03T03:40:48.701Z,997.67
2017-10-03T03:41:48.697Z,997.73
2017-10-03T03:42:48.687Z,997.72
2017-10-03T03:43:48.713Z,997.72
2017-10-03T03:44:48.673Z,997.72
2017-10-03T03:45:48.666Z,997.68
2017-10-03T03:46:48.662Z,997.63
2017-10-03T03:47:48.998Z,997.63
2017-10-03T03:48:48.654Z,997.70
2017-10-03T03:49:48.638Z,997.68
2017-10-03T03:50:48.633Z,997.70
2017-10-03T03:51:48.627Z,997.73
2017-10-03T03:52:48.625Z,997.73
2017-10-03T03:53:49.048Z,997.72
2017-10-03T03:54:48.603Z,997.71
2017-10-03T03:55:48.594Z,997.69
2017-10-03T03:56:48.589Z,997.69
2017-10-03T03:57:48.579Z,997.70
2017-10-03T03:58:48.572Z,997.70
2017-10-03T03:59:48.905Z,997.70
2017-10-03T04:00:48.552Z,997.71
2017-10-03T04:01:48.549Z,997.73
2017-10-03T04:02:48.547Z,997.75
2017-10-03T04:03:48.538Z,997.74
2017-10-03T04:04:48.529Z,997.73
2017-10-03T04:05:48.544Z,997.69
2017-10-03T04:06:48.512Z,997.72
2017-10-03T04:07:48.499Z,997.76
2017-10-03T04:08:48.503Z,997.80
2017-10-03T04:09:48.515Z,997.78
2017-10-03T04:10:48.481Z,997.83
2017-10-03T04:11:48.475Z,997.84
2017-10-03T04:12:48.467Z,997.81
2017-10-03T04:13:48.460Z,997.80
2017-10-03T04:14:48.872Z,997.81
2017-10-03T04:15:48.445Z,997.84
2017-10-03T04:16:48.436Z,997.87
2017-10-03T04:17:48.436Z,997.85
2017-10-03T04:18:48.418Z,997.89
2017-10-03T04:19:48.413Z,997.86
2017-10-03T04:20:48.431Z,997.93
2017-10-03T04:21:48.400Z,997.91
2017-10-03T04:22:48.400Z,997.84
2017-10-03T04:23:48.387Z,997.88
2017-10-03T04:24:48.674Z,997.90
2017-10-03T04:25:48.370Z,997.88
2017-10-03T04:26:48.359Z,997.86
2017-10-03T04:27:48.355Z,997.85
2017-10-03T04:28:48.350Z,997.90
2017-10-03T04:29:48.342Z,997.90
2017-10-03T04:30:48.634Z,997.88
2017-10-03T04:31:48.328Z,997.90
2017-10-03T04:32:48.316Z,997.90
2017-10-03T04:33:48.315Z,997.91
2017-10-03T04:34:48.300Z,997.92
2017-10-03T04:35:48.295Z,997.95
2017-10-03T04:36:48.650Z,997.94
2017-10-03T04:37:48.302Z,997.96
2017-10-03T04:38:48.274Z,997.97
2017-10-03T04:39:48.266Z,997.99
2017-10-03T04:40:48.259Z,998.00
2017-10-03T04:41:48.251Z,997.98
2017-10-03T04:42:48.566Z,997.96
2017-10-03T04:43:48.236Z,997.98
2017-10-03T04:44:48.233Z,998.02
2017-10-03T04:45:48.221Z,998.02
2017-10-03T04:46:48.221Z,998.05
2017-10-03T04:47:48.209Z,998.05
2017-10-03T04:48:48.508Z,998.08
2017-10-03T04:49:48.194Z,998.12
2017-10-03T04:50:48.187Z,998.09
2017-10-03T04:51:48.181Z,998.12
2017-10-03T04:52:48.182Z,998.14
2017-10-03T04:53:48.160Z,998.15
2017-10-03T04:54:48.586Z,998.16
2017-10-03T04:55:48.144Z,998.16
2017-10-03T04:56:48.139Z,998.17
2017-10-03T04:57:48.132Z,998.16
2017-10-03T04:58:48.121Z,998.19
2017-10-03T04:59:48.116Z,998.21
2017-10-03T05:00:48.540Z,998.21
2017-10-03T05:01:48.110Z,998.22
2017-10-03T05:02:48.104Z,998.22
2017-10-03T05:03:48.084Z,998.17
2017-10-03T05:04:48.089Z,998.18
2017-10-03T05:05:48.077Z,998.20
2017-10-03T05:06:48.587Z,998.19
2017-10-03T05:07:48.057Z,998.20
2017-10-03T05:08:48.054Z,998.21
2017-10-03T05:09:48.050Z,998.21
2017-10-03T05:10:48.039Z,998.26
2017-10-03T05:11:48.026Z,998.28
2017-10-03T05:12:48.051Z,998.26
2017-10-03T05:13:48.009Z,998.30
2017-10-03T05:14:48.005Z,998.28
2017-10-03T05:15:48.303Z,998.32
2017-10-03T05:16:47.992Z,998.28
2017-10-03T05:17:47.982Z,998.30
2017-10-03T05:18:47.974Z,998.29
2017-10-03T05:19:47.975Z,998.32
2017-10-03T05:20:47.961Z,998.27
2017-10-03T05:21:47.987Z,998.32
2017-10-03T05:22:47.946Z,998.34
2017-10-03T05:23:47.936Z,998.33
2017-10-03T05:24:47.940Z,998.37
2017-10-03T05:25:47.959Z,998.39
2017-10-03T05:26:47.916Z,998.39
2017-10-03T05:27:47.907Z,998.38
2017-10-03T05:28:47.900Z,998.41
2017-10-03T05:29:47.894Z,998.40
2017-10-03T05:30:47.913Z,998.46
2017-10-03T05:31:47.881Z,998.43
2017-10-03T05:32:47.869Z,998.46
2017-10-03T05:33:47.861Z,998.46
2017-10-03T05:34:47.853Z,998.51
2017-10-03T05:35:48.199Z,998.49
2017-10-03T05:36:47.846Z,998.51
2017-10-03T05:37:47.835Z,998.53
2017-10-03T05:38:47.828Z,998.52
2017-10-03T05:39:47.816Z,998.51
2017-10-03T05:40:47.816Z,998.55
2017-10-03T05:41:47.831Z,998.56
2017-10-03T05:42:47.802Z,998.58
2017-10-03T05:43:47.790Z,998.57
2017-10-03T05:44:47.783Z,998.58
2017-10-03T05:45:47.777Z,998.57
2017-10-03T05:46:48.208Z,998.61
2017-10-03T05:47:47.760Z,998.58
2017-10-03T05:48:47.756Z,998.64
2017-10-03T05:49:47.747Z,998.64
2017-10-03T05:50:47.737Z,998.64
2017-10-03T05:51:47.729Z,998.65
2017-10-03T05:52:48.168Z,998.66
2017-10-03T05:53:47.714Z,998.66
2017-10-03T05:54:47.710Z,998.66
2017-10-03T05:55:47.702Z,998.69
2017-10-03T05:56:47.691Z,998.74
2017-10-03T05:57:47.683Z,998.73
2017-10-03T05:58:48.069Z,998.76
2017-10-03T05:59:47.676Z,998.75
2017-10-03T06:00:47.669Z,998.78
2017-10-03T06:01:47.657Z,998.78
2017-10-03T06:02:47.644Z,998.77
2017-10-03T06:03:47.644Z,998.81
2017-10-03T06:04:48.002Z,998.85
2017-10-03T06:05:47.629Z,998.86
2017-10-03T06:06:47.616Z,998.85
2017-10-03T06:07:47.611Z,998.89
2017-10-03T06:08:47.600Z,998.90
2017-10-03T06:09:47.598Z,998.91
2017-10-03T06:10:47.609Z,998.88
2017-10-03T06:11:47.575Z,998.92
2017-10-03T06:12:47.571Z,998.90
2017-10-03T06:13:47.566Z,998.92
2017-10-03T06:14:47.982Z,998.95
2017-10-03T06:15:47.547Z,998.90
2017-10-03T06:16:47.543Z,998.91
2017-10-03T06:17:47.544Z,998.95
2017-10-03T06:18:47.522Z,998.94
2017-10-03T06:19:47.519Z,998.95
2017-10-03T06:20:47.848Z,998.99
2017-10-03T06:21:47.503Z,999.00
2017-10-03T06:22:47.497Z,999.08
2017-10-03T06:23:47.495Z,999.06
2017-10-03T06:24:47.483Z,999.06
2017-10-03T06:25:47.474Z,999.06
2017-10-03T06:26:47.844Z,999.12
2017-10-03T06:27:47.458Z,999.14
2017-10-03T06:28:47.456Z,999.13
2017-10-03T06:29:47.442Z,999.18
2017-10-03T06:30:47.435Z,999.18
2017-10-03T06:31:47.435Z,999.18
2017-10-03T06:32:47.779Z,999.21
2017-10-03T06:33:47.413Z,999.20
2017-10-03T06:34:47.410Z,999.24
2017-10-03T06:35:47.401Z,999.24
2017-10-03T06:36:47.390Z,999.22
2017-10-03T06:37:47.385Z,999.24
2017-10-03T06:38:47.794Z,999.25
2017-10-03T06:39:47.370Z,999.25
2017-10-03T06:40:47.361Z,999.28
2017-10-03T06:41:47.354Z,999.25
2017-10-03T06:42:47.353Z,999.26
2017-10-03T06:43:47.348Z,999.28
2017-10-03T06:44:47.776Z,999.30
2017-10-03T06:45:47.325Z,999.31
2017-10-03T06:46:47.318Z,999.36
2017-10-03T06:47:47.307Z,999.37
2017-10-03T06:48:47.300Z,999.40
2017-10-03T06:49:47.298Z,999.37
2017-10-03T06:50:47.323Z,999.41
2017-10-03T06:51:47.277Z,999.43
2017-10-03T06:52:47.273Z,999.49
2017-10-03T06:53:47.267Z,999.54
2017-10-03T06:54:47.259Z,999.53
2017-10-03T06:55:47.253Z,999.51
2017-10-03T06:56:47.603Z,999.51
2017-10-03T06:57:47.235Z,999.50
2017-10-03T06:58:47.227Z,999.55
2017-10-03T06:59:47.222Z,999.53
2017-10-03T07:00:47.220Z,999.59
2017-10-03T07:01:47.208Z,999.61
2017-10-03T07:02:47.598Z,999.61
2017-10-03T07:03:47.196Z,999.63
2017-10-03T07:04:47.179Z,999.63
2017-10-03T07:05:47.172Z,999.65
2017-10-03T07:06:47.172Z,999.66
2017-10-03T07:07:47.172Z,999.70
2017-10-03T07:08:47.178Z,999.74
2017-10-03T07:09:47.142Z,999.73
2017-10-03T07:10:47.144Z,999.77
2017-10-03T07:11:47.129Z,999.78
2017-10-03T07:12:47.119Z,999.77
2017-10-03T07:13:47.515Z,999.81
2017-10-03T07:14:47.105Z,999.86
2017-10-03T07:15:47.098Z,999.86
2017-10-03T07:16:47.096Z,999.87
2017-10-03T07:17:47.080Z,999.87
2017-10-03T07:18:47.075Z,999.88
2017-10-03T07:19:47.393Z,999.91
2017-10-03T07:20:47.062Z,999.92
2017-10-03T07:21:47.065Z,999.92
2017-10-03T07:22:47.049Z,999.94
2017-10-03T07:23:47.038Z,999.95
2017-10-03T07:24:47.031Z,999.94
2017-10-03T07:25:47.418Z,999.96
2017-10-03T07:26:47.025Z,999.96
2017-10-03T07:27:47.005Z,999.97
2017-10-03T07:28:47.001Z,999.99
2017-10-03T07:29:46.996Z,1000.04
2017-10-03T07:30:46.985Z,1000.05
2017-10-03T07:31:47.467Z,1000.06
2017-10-03T07:32:46.978Z,1000.09
2017-10-03T07:33:46.962Z,1000.10
2017-10-03T07:34:46.958Z,1000.12
2017-10-03T07:35:46.952Z,1000.12
2017-10-03T07:36:46.944Z,1000.15
2017-10-03T07:37:47.235Z,1000.19
2017-10-03T07:38:46.931Z,1000.22
2017-10-03T07:39:46.921Z,1000.25
2017-10-03T07:40:46.911Z,1000.25
2017-10-03T07:41:46.906Z,1000.26
2017-10-03T07:42:46.896Z,1000.27
2017-10-03T07:43:47.359Z,1000.28
2017-10-03T07:44:46.881Z,1000.26
2017-10-03T07:45:46.875Z,1000.29
2017-10-03T07:46:46.871Z,1000.35
2017-10-03T07:47:46.868Z,1000.36
2017-10-03T07:48:46.850Z,1000.37
2017-10-03T07:49:47.220Z,1000.38
2017-10-03T07:50:46.835Z,1000.41
2017-10-03T07:51:46.832Z,1000.42
2017-10-03T07:52:46.821Z,1000.44
2017-10-03T07:53:46.818Z,1000.46
2017-10-03T07:54:46.808Z,1000.50
2017-10-03T07:55:47.098Z,1000.47
2017-10-03T07:56:46.791Z,1000.52
2017-10-03T07:57:46.790Z,1000.54
2017-10-03T07:58:46.776Z,1000.58
2017-10-03T07:59:46.771Z,1000.57
2017-10-03T08:00:46.764Z,1000.58
2017-10-03T08:01:47.153Z,1000.61
2017-10-03T08:02:46.747Z,1000.60
2017-10-03T08:03:46.739Z,1000.60
2017-10-03T08:04:46.729Z,1000.62
2017-10-03T08:05:46.734Z,1000.62
2017-10-03T08:06:46.718Z,1000.65
2017-10-03T08:07:47.090Z,1000.68
2017-10-03T08:08:46.715Z,1000.67
2017-10-03T08:09:46.691Z,1000.75
2017-10-03T08:10:46.686Z,1000.76
2017-10-03T08:11:46.675Z,1000.80
2017-10-03T08:12:46.674Z,1000.75
2017-10-03T08:13:46.693Z,1000.79
2017-10-03T08:14:46.660Z,1000.85
2017-10-03T08:15:46.651Z,1000.89
2017-10-03T08:16:46.645Z,1000.87
2017-10-03T08:17:46.658Z,1000.91
2017-10-03T08:18:46.630Z,1000.91
2017-10-03T08:19:46.624Z,1000.94
2017-10-03T08:20:46.622Z,1000.94
2017-10-03T08:21:46.608Z,1000.96
2017-10-03T08:22:46.983Z,1001.01
2017-10-03T08:23:46.597Z,1001.03
2017-10-03T08:24:46.583Z,1001.02
2017-10-03T08:25:46.569Z,1001.04
2017-10-03T08:26:46.574Z,1001.07
2017-10-03T08:27:46.560Z,1001.00
2017-10-03T08:28:46.986Z,1001.09
2017-10-03T08:29:46.573Z,1001.04
2017-10-03T08:30:46.539Z,1001.07
2017-10-03T08:31:46.533Z,1001.06
2017-10-03T08:32:46.524Z,1001.11
2017-10-03T08:33:46.517Z,1001.08
2017-10-03T08:34:46.911Z,1001.07
2017-10-03T08:35:46.500Z,1001.06
2017-10-03T08:36:46.497Z,1001.08
2017-10-03T08:37:46.486Z,1001.12
2017-10-03T08:38:46.477Z,1001.11
2017-10-03T08:39:46.475Z,1001.14
2017-10-03T08:40:46.913Z,1001.15
2017-10-03T08:41:46.459Z,1001.15
2017-10-03T08:42:46.448Z,1001.19
2017-10-03T08:43:46.438Z,1001.20
2017-10-03T08:44:46.432Z,1001.20
2017-10-03T08:45:46.428Z,1001.21
2017-10-03T08:46:46.442Z,1001.28
2017-10-03T08:47:46.410Z,1001.24
2017-10-03T08:48:46.404Z,1001.26
2017-10-03T08:49:46.396Z,1001.30
2017-10-03T08:50:46.779Z,1001.34
2017-10-03T08:51:46.381Z,1001.40
2017-10-03T08:52:46.369Z,1001.42
2017-10-03T08:53:46.366Z,1001.44
2017-10-03T08:54:46.361Z,1001.43
2017-10-03T08:55:46.355Z,1001.48
2017-10-03T08:56:46.743Z,1001.44
2017-10-03T08:57:46.336Z,1001.44
2017-10-03T08:58:46.331Z,1001.48
2017-10-03T08:59:46.321Z,1001.48
2017-10-03T09:00:46.314Z,1001.48
2017-10-03T09:01:46.310Z,1001.55
2017-10-03T09:02:46.670Z,1001.50
2017-10-03T09:03:46.288Z,1001.55
2017-10-03T09:04:46.286Z,1001.53
2017-10-03T09:05:46.276Z,1001.52
2017-10-03T09:06:46.270Z,1001.49
2017-10-03T09:07:46.259Z,1001.50
2017-10-03T09:08:46.282Z,1001.56
2017-10-03T09:09:46.244Z,1001.52
2017-10-03T09:10:46.238Z,1001.55
2017-10-03T09:11:46.228Z,1001.61
2017-10-03T09:12:46.614Z,1001.70
2017-10-03T09:13:46.213Z,1001.62
2017-10-03T09:14:46.210Z,1001.62
2017-10-03T09:15:46.202Z,1001.67
2017-10-03T09:16:46.196Z,1001.65
2017-10-03T09:17:46.189Z,1001.68
2017-10-03T09:18:46.483Z,1001.71
2017-10-03T09:19:46.172Z,1001.73
2017-10-03T09:20:46.163Z,1001.71
2017-10-03T09:21:46.159Z,1001.77
2017-10-03T09:22:46.160Z,1001.74
2017-10-03T09:23:46.141Z,1001.74
2017-10-03T09:24:46.569Z,1001.75
2017-10-03T09:25:46.123Z,1001.72
2017-10-03T09:26:46.120Z,1001.78
2017-10-03T09:27:46.115Z,1001.80
2017-10-03T09:28:46.106Z,1001.77
2017-10-03T09:29:46.099Z,1001.83
2017-10-03T09:30:46.547Z,1001.76
2017-10-03T09:31:46.081Z,1001.80
2017-10-03T09:32:46.076Z,1001.80
2017-10-03T09:33:46.069Z,1001.81
2017-10-03T09:34:46.057Z,1001.83
2017-10-03T09:35:46.058Z,1001.87
2017-10-03T09:36:46.368Z,1001.87
2017-10-03T09:37:46.047Z,1001.85
2017-10-03T09:38:46.028Z,1001.88
2017-10-03T09:39:46.023Z,1001.80
2017-10-03T09:40:46.016Z,1001.86
2017-10-03T09:41:46.007Z,1001.84
2017-10-03T09:42:46.361Z,1001.87
2017-10-03T09:43:45.995Z,1001.84
2017-10-03T09:44:45.984Z,1001.88
2017-10-03T09:45:45.979Z,1001.90
2017-10-03T09:46:45.978Z,1001.92
2017-10-03T09:47:45.961Z,1001.95
2017-10-03T09:48:46.276Z,1002.01
2017-10-03T09:49:45.950Z,1002.02
2017-10-03T09:50:45.939Z,1001.99
2017-10-03T09:51:45.936Z,1002.00
2017-10-03T09:52:45.927Z,1001.99
2017-10-03T09:53:45.920Z,1002.01
2017-10-03T09:54:46.281Z,1002.03
2017-10-03T09:55:45.906Z,1002.10
2017-10-03T09:56:45.893Z,1002.10
2017-10-03T09:57:45.894Z,1002.15
2017-10-03T09:58:45.883Z,1002.14
2017-10-03T09:59:45.870Z,1002.13
2017-10-03T10:00:46.183Z,1002.18
2017-10-03T10:01:45.856Z,1002.21
2017-10-03T10:02:45.851Z,1002.19
2017-10-03T10:03:45.846Z,1002.18
2017-10-03T10:04:45.837Z,1002.22
2017-10-03T10:05:45.831Z,1002.25
2017-10-03T10:06:45.857Z,1002.23
2017-10-03T10:07:46.214Z,1002.26
2017-10-03T10:08:45.816Z,1002.29
2017-10-03T10:09:45.800Z,1002.28
2017-10-03T10:10:45.790Z,1002.29
2017-10-03T10:11:45.784Z,1002.27
2017-10-03T10:12:45.787Z,1002.32
2017-10-03T10:13:45.797Z,1002.30
2017-10-03T10:14:45.769Z,1002.30
2017-10-03T10:15:45.755Z,1002.37
2017-10-03T10:16:45.757Z,1002.38
2017-10-03T10:17:45.740Z,1002.38
2017-10-03T10:18:45.769Z,1002.38
2017-10-03T10:19:45.722Z,1002.39
2017-10-03T10:20:45.719Z,1002.41
2017-10-03T10:21:45.707Z,1002.43
2017-10-03T10:22:45.707Z,1002.43
2017-10-03T10:23:45.721Z,1002.41
2017-10-03T10:24:45.688Z,1002.40
2017-10-03T10:25:45.691Z,1002.42
2017-10-03T10:26:45.677Z,1002.43
2017-10-03T10:27:45.673Z,1002.42
2017-10-03T10:28:46.056Z,1002.49
2017-10-03T10:29:45.652Z,1002.48
2017-10-03T10:30:45.645Z,1002.46
2017-10-03T10:31:45.641Z,1002.53
2017-10-03T10:32:45.629Z,1002.50
2017-10-03T10:33:45.621Z,1002.50
2017-10-03T10:34:45.998Z,1002.52
2017-10-03T10:35:45.607Z,1002.52
2017-10-03T10:36:45.598Z,1002.54
2017-10-03T10:37:45.591Z,1002.56
2017-10-03T10:38:45.593Z,1002.60
2017-10-03T10:39:45.579Z,1002.54
2017-10-03T10:40:45.607Z,1002.59
2017-10-03T10:41:45.563Z,1002.60
2017-10-03T10:42:45.555Z,1002.63
2017-10-03T10:43:45.545Z,1002.60
2017-10-03T10:44:45.539Z,1002.64
2017-10-03T10:45:45.562Z,1002.62
2017-10-03T10:46:45.527Z,1002.63
2017-10-03T10:47:45.517Z,1002.67
2017-10-03T10:48:45.507Z,1002.68
2017-10-03T10:49:45.505Z,1002.69
2017-10-03T10:50:45.798Z,1002.71
2017-10-03T10:51:45.490Z,1002.69
2017-10-03T10:52:45.484Z,1002.72
2017-10-03T10:53:45.474Z,1002.77
2017-10-03T10:54:45.464Z,1002.71
2017-10-03T10:55:45.461Z,1002.72
2017-10-03T10:56:45.779Z,1002.75
2017-10-03T10:57:45.440Z,1002.77
2017-10-03T10:58:45.436Z,1002.70
2017-10-03T10:59:45.423Z,1002.78
2017-10-03T11:00:45.418Z,1002.78
2017-10-03T11:01:45.410Z,1002.85
2017-10-03T11:02:45.446Z,1002.87
2017-10-03T11:03:45.398Z,1002.95
2017-10-03T11:04:45.394Z,1003.01
2017-10-03T11:05:45.720Z,1003.02
2017-10-03T11:06:45.380Z,1003.03
2017-10-03T11:07:45.366Z,1003.06
2017-10-03T11:08:45.360Z,1003.07
2017-10-03T11:09:45.354Z,1003.09
2017-10-03T11:10:45.347Z,1003.17
2017-10-03T11:11:45.719Z,1003.13
2017-10-03T11:12:45.331Z,1003.13
2017-10-03T11:13:45.322Z,1003.12
2017-10-03T11:14:45.320Z,1003.15
2017-10-03T11:15:45.307Z,1003.14
2017-10-03T11:16:45.306Z,1003.14
2017-10-03T11:17:45.676Z,1003.14
2017-10-03T11:18:45.293Z,1003.15
2017-10-03T11:19:45.278Z,1003.18
2017-10-03T11:20:45.273Z,1003.18
2017-10-03T11:21:45.262Z,1003.25
2017-10-03T11:22:45.260Z,1003.25
2017-10-03T11:23:45.702Z,1003.27
2017-10-03T11:24:45.242Z,1003.31
2017-10-03T11:25:45.235Z,1003.29
2017-10-03T11:26:45.229Z,1003.30
2017-10-03T11:27:45.221Z,1003.27
2017-10-03T11:28:45.210Z,1003.26
2017-10-03T11:29:45.560Z,1003.29
2017-10-03T11:30:45.195Z,1003.29
2017-10-03T11:31:45.193Z,1003.32
2017-10-03T11:32:45.186Z,1003.33
2017-10-03T11:33:45.177Z,1003.26
2017-10-03T11:34:45.166Z,1003.33
2017-10-03T11:35:45.629Z,1003.31
2017-10-03T11:36:45.148Z,1003.37
2017-10-03T11:37:45.145Z,1003.35
2017-10-03T11:38:45.137Z,1003.37
2017-10-03T11:39:45.131Z,1003.34
2017-10-03T11:40:45.121Z,1003.30
2017-10-03T11:41:45.146Z,1003.34
2017-10-03T11:42:45.109Z,1003.33
2017-10-03T11:43:45.100Z,1003.33
2017-10-03T11:44:45.091Z,1003.38
2017-10-03T11:45:45.086Z,1003.33
2017-10-03T11:46:45.437Z,1003.36
2017-10-03T11:47:45.071Z,1003.38
2017-10-03T11:48:45.064Z,1003.38
2017-10-03T11:49:45.056Z,1003.39
2017-10-03T11:50:45.056Z,1003.40
2017-10-03T11:51:45.039Z,1003.43
2017-10-03T11:52:45.512Z,1003.36
2017-10-03T11:53:45.028Z,1003.42
2017-10-03T11:54:45.020Z,1003.37
2017-10-03T11:55:45.006Z,1003.35
2017-10-03T11:56:45.011Z,1003.43
2017-10-03T11:57:44.995Z,1003.34
2017-10-03T11:58:45.423Z,1003.36
2017-10-03T11:59:44.977Z,1003.38
2017-10-03T12:00:44.973Z,1003.39
2017-10-03T12:01:44.970Z,1003.43
2017-10-03T12:02:44.962Z,1003.40
2017-10-03T12:03:44.949Z,1003.44
2017-10-03T12:04:45.385Z,1003.46
2017-10-03T12:05:44.937Z,1003.46
2017-10-03T12:06:44.933Z,1003.45
2017-10-03T12:07:44.922Z,1003.48
2017-10-03T12:08:44.920Z,1003.53
2017-10-03T12:09:44.905Z,1003.54
2017-10-03T12:10:45.307Z,1003.55
2017-10-03T12:11:44.897Z,1003.57
2017-10-03T12:12:44.887Z,1003.54
2017-10-03T12:13:44.876Z,1003.53
2017-10-03T12:14:44.878Z,1003.58
2017-10-03T12:15:44.862Z,1003.62
2017-10-03T12:16:45.233Z,1003.65
2017-10-03T12:17:44.856Z,1003.61
2017-10-03T12:18:44.839Z,1003.58
2017-10-03T12:19:44.830Z,1003.55